createdAt,value
2024-04-30T00:02:00.264Z,93.96
2024-04-30T00:04:01.461Z,93.91
2024-04-30T00:08:03.969Z,93.89
2024-04-30T00:10:05.473Z,93.94
2024-04-30T00:14:09.058Z,94.25
2024-04-30T00:18:11.469Z,94.09
2024-04-30T00:20:13.368Z,94.28
2024-04-30T00:24:15.858Z,94.63
2024-04-30T00:28:19.003Z,94.65
2024-04-30T00:30:20.763Z,94.73
2024-04-30T00:34:23.112Z,94.85
2024-04-30T00:36:24.062Z,95.01
2024-04-30T00:38:25.123Z,95.07
2024-04-30T00:40:26.475Z,95.04
2024-04-30T00:44:29.603Z,95.13
2024-04-30T00:46:31.424Z,95.15
2024-04-30T00:48:32.740Z,95.22
2024-04-30T00:50:34.169Z,95.39
2024-04-30T00:52:35.752Z,95.54
2024-04-30T00:56:39.385Z,95.68
2024-04-30T01:00:42.119Z,95.75
2024-04-30T01:02:43.180Z,95.72
2024-04-30T01:06:46.062Z,95.81
2024-04-30T01:08:47.877Z,95.85
2024-04-30T01:12:50.795Z,95.86
2024-04-30T01:16:53.703Z,95.82
2024-04-30T01:18:54.678Z,95.78
2024-04-30T01:22:57.910Z,95.96
2024-04-30T01:27:00.953Z,95.83
2024-04-30T01:29:02.382Z,95.8
2024-04-30T01:33:05.965Z,95.98
2024-04-30T01:35:07.111Z,95.96
2024-04-30T01:39:09.956Z,96.18
2024-04-30T01:43:13.317Z,96.42
2024-04-30T01:45:14.534Z,96.47
2024-04-30T01:49:17.538Z,96.66
2024-04-30T01:51:18.716Z,96.61
2024-04-30T01:55:21.092Z,96.49
2024-04-30T01:57:22.087Z,96.45
2024-04-30T02:01:25.262Z,96.33
2024-04-30T02:05:28.340Z,96.25
2024-04-30T02:09:31.625Z,96.24
2024-04-30T02:11:32.665Z,96.28
2024-04-30T02:15:34.760Z,96.25
2024-04-30T02:17:36.738Z,96.24
2024-04-30T02:21:39.332Z,96.36
2024-04-30T02:25:42.065Z,96.46
2024-04-30T02:27:43.914Z,96.38
2024-04-30T02:31:46.506Z,96.47
2024-04-30T02:33:47.910Z,96.44
2024-04-30T02:37:50.683Z,96.45
2024-04-30T02:41:52.824Z,96.63
2024-04-30T02:43:54.504Z,96.58
2024-04-30T02:47:57.506Z,96.7
2024-04-30T02:52:00.110Z,96.74
2024-04-30T02:54:01.866Z,96.66
2024-04-30T02:58:04.486Z,96.58
2024-04-30T03:00:05.529Z,96.58
2024-04-30T03:02:07.441Z,96.47
2024-04-30T03:04:09.311Z,96.41
2024-04-30T03:08:12.601Z,96.69
2024-04-30T03:10:14.551Z,96.81
2024-04-30T03:14:17.681Z,96.79
2024-04-30T03:16:19.584Z,96.95
2024-04-30T03:20:22.809Z,97.13
2024-04-30T03:24:25.946Z,97.04
2024-04-30T03:26:26.959Z,97.05
2024-04-30T03:30:29.799Z,97.07
2024-04-30T03:34:33.397Z,97.22
2024-04-30T03:36:34.595Z,97.29
2024-04-30T03:40:37.637Z,97.43
2024-04-30T03:42:39.388Z,97.38
2024-04-30T03:44:40.732Z,97.32
2024-04-30T03:46:41.836Z,97.24
2024-04-30T03:50:45.050Z,97.16
2024-04-30T03:52:46.290Z,97.11
2024-04-30T03:56:48.842Z,97
2024-04-30T03:58:59.377Z,96.99
2024-04-30T04:02:53.199Z,96.98
2024-04-30T04:06:55.312Z,97.04
2024-04-30T04:08:56.740Z,97.02
2024-04-30T04:12:59.131Z,96.94
2024-04-30T04:15:00.626Z,96.89
2024-04-30T04:19:03.817Z,97.09
2024-04-30T04:23:06.712Z,96.98
2024-04-30T04:25:07.857Z,97.02
2024-04-30T04:29:10.795Z,97.04
2024-04-30T04:33:13.547Z,97.17
2024-04-30T04:35:14.604Z,97.13
2024-04-30T04:39:16.908Z,96.88
2024-04-30T04:41:18.416Z,96.99
2024-04-30T04:45:21.612Z,97.12
2024-04-30T04:49:24.134Z,97.34
2024-04-30T04:51:25.089Z,97.41
2024-04-30T04:55:28.004Z,97.63
2024-04-30T04:57:29.065Z,97.15
2024-04-30T05:01:32.135Z,96.53
2024-04-30T05:05:34.270Z,95.98
2024-04-30T05:07:35.877Z,96
2024-04-30T05:10:21.282Z,95.5
2024-04-30T05:12:22.542Z,95.4
2024-04-30T05:16:25.063Z,94.63
2024-04-30T05:18:26.215Z,94.35
2024-04-30T05:20:27.458Z,93.98
2024-04-30T05:22:28.576Z,93.73
2024-04-30T05:26:31.789Z,92.02
2024-04-30T05:28:33.519Z,90.84
2024-04-30T05:32:36.239Z,86.9
2024-04-30T05:34:37.444Z,85.63
2024-04-30T05:38:40.205Z,87.06
2024-04-30T05:42:42.635Z,88.44
2024-04-30T05:44:43.884Z,87.45
2024-04-30T05:48:46.782Z,84.11
2024-04-30T05:54:51.091Z,85.36
2024-04-30T05:58:53.479Z,83.71
2024-04-30T06:00:54.913Z,81.29
2024-04-30T06:04:57.324Z,80.48
2024-04-30T06:08:59.968Z,79.77
2024-04-30T06:11:01.391Z,79.78
2024-04-30T06:15:04.527Z,79.73
2024-04-30T06:17:06.058Z,80.7
2024-04-30T06:21:11.581Z,83.09
2024-04-30T06:25:11.507Z,81.65
2024-04-30T06:27:13.050Z,78.63
2024-04-30T06:31:15.285Z,77.03
2024-04-30T06:33:16.147Z,79.67
2024-04-30T06:37:18.481Z,81.28
2024-04-30T06:41:21.350Z,79.45
2024-04-30T06:43:22.737Z,78.66
2024-04-30T06:47:25.281Z,78.96
2024-04-30T06:51:28.030Z,76.8
2024-04-30T06:53:29.364Z,75.91
2024-04-30T06:59:33.280Z,74.97
2024-04-30T07:01:34.499Z,74.54
2024-04-30T07:03:35.498Z,71.4
2024-04-30T07:05:37.244Z,69.05
2024-04-30T07:09:48.299Z,71.29
2024-04-30T07:11:40.626Z,68.89
2024-04-30T07:13:41.613Z,71.23
2024-04-30T07:15:42.679Z,71.53
2024-04-30T07:19:46.094Z,69.84
2024-04-30T07:21:46.489Z,69.02
2024-04-30T07:25:48.996Z,68.98
2024-04-30T07:29:51.487Z,70.72
2024-04-30T07:31:52.470Z,69.96
2024-04-30T07:35:54.750Z,69.8
2024-04-30T07:39:57.171Z,70.68
2024-04-30T07:41:58.294Z,68.32
2024-04-30T07:46:00.519Z,69.34
2024-04-30T07:48:01.940Z,68.68
2024-04-30T07:52:04.693Z,68.76
2024-04-30T07:56:07.106Z,68.71
2024-04-30T07:58:08.657Z,65.98
2024-04-30T08:02:13.826Z,68.38
2024-04-30T08:04:12.222Z,67.88
2024-04-30T08:08:14.973Z,68.03
2024-04-30T08:12:17.852Z,66.33
2024-04-30T08:14:19.588Z,66.79
2024-04-30T08:18:22.117Z,64.47
2024-04-30T08:22:25.545Z,64.19
2024-04-30T08:24:26.599Z,64.41
2024-04-30T08:28:28.888Z,66.3
2024-04-30T08:30:30.477Z,67.52
2024-04-30T08:32:31.658Z,62.78
2024-04-30T08:34:32.650Z,68.01
2024-04-30T08:38:35.793Z,61.79
2024-04-30T08:40:36.584Z,60.54
2024-04-30T08:42:37.927Z,63.08
2024-04-30T08:44:38.945Z,62.19
2024-04-30T08:46:39.868Z,58.34
2024-04-30T08:50:43.086Z,60.47
2024-04-30T08:54:45.747Z,67.63
2024-04-30T08:56:46.643Z,61.15
2024-04-30T09:00:49.871Z,61.34
2024-04-30T09:02:53.187Z,63.05
2024-04-30T09:06:53.756Z,62.97
2024-04-30T09:10:56.614Z,60.29
2024-04-30T09:12:57.461Z,61.8
2024-04-30T09:17:00.043Z,61.34
2024-04-30T09:23:04.134Z,59.79
2024-04-30T09:27:07.182Z,63.01
2024-04-30T09:29:08.270Z,58.61
2024-04-30T09:33:10.796Z,62.92
2024-04-30T09:37:12.954Z,56.94
2024-04-30T09:39:14.591Z,59.42
2024-04-30T09:43:16.307Z,57.54
2024-04-30T09:45:17.757Z,59.99
2024-04-30T09:49:21.122Z,58.01
2024-04-30T09:53:23.374Z,57.34
2024-04-30T09:55:24.697Z,57.46
2024-04-30T09:59:26.808Z,56.46
2024-04-30T10:03:29.067Z,59.47
2024-04-30T10:05:30.809Z,58.65
2024-04-30T10:09:33.601Z,61.24
2024-04-30T10:11:34.489Z,56.03
2024-04-30T10:13:35.406Z,55.6
2024-04-30T10:15:36.758Z,54.26
2024-04-30T10:19:39.633Z,53.66
2024-04-30T10:21:40.839Z,54.3
2024-04-30T10:23:42.165Z,55.61
2024-04-30T10:25:43.030Z,54.3
2024-04-30T10:27:43.991Z,54.19
2024-04-30T10:31:45.995Z,52.94
2024-04-30T10:35:48.677Z,54.17
2024-04-30T10:37:50.177Z,54.27
2024-04-30T10:41:52.179Z,54.14
2024-04-30T10:43:54.990Z,53.07
2024-04-30T10:47:56.262Z,54.27
2024-04-30T10:51:59.422Z,53.73
2024-04-30T10:54:00.925Z,56.87
2024-04-30T10:58:03.016Z,50.69
2024-04-30T11:02:05.112Z,51.48
2024-04-30T11:04:06.178Z,52.42
2024-04-30T11:08:09.101Z,50.39
2024-04-30T11:10:10.403Z,50.07
2024-04-30T11:14:12.351Z,50.96
2024-04-30T11:18:14.105Z,50.97
2024-04-30T11:20:15.743Z,55.38
2024-04-30T11:24:17.987Z,55.7
2024-04-30T11:26:19.028Z,57.13
2024-04-30T11:30:21.585Z,54.69
2024-04-30T11:34:24.495Z,55.09
2024-04-30T11:36:25.315Z,53.99
2024-04-30T11:40:27.807Z,51.24
2024-04-30T11:46:31.353Z,56.46
2024-04-30T11:50:33.729Z,57.82
2024-04-30T11:52:35.066Z,54.2
2024-04-30T11:55:20.209Z,53.66
2024-04-30T11:57:21.421Z,55.26
2024-04-30T12:01:24.177Z,49.5
2024-04-30T12:03:25.651Z,51.81
2024-04-30T12:07:28.584Z,49.07
2024-04-30T12:11:30.819Z,48.85
2024-04-30T12:13:32.435Z,43.56
2024-04-30T12:17:34.655Z,44.09
2024-04-30T12:19:35.855Z,45.6
2024-04-30T12:23:38.583Z,43.7
2024-04-30T12:27:41.043Z,43.75
2024-04-30T12:29:42.207Z,44.18
2024-04-30T12:33:45.404Z,46.49
2024-04-30T12:37:47.320Z,49.8
2024-04-30T12:39:48.686Z,46.22
2024-04-30T12:43:50.785Z,47.57
2024-04-30T12:45:52.099Z,47
2024-04-30T12:49:55.196Z,50.19
2024-04-30T12:53:57.934Z,44.85
2024-04-30T12:55:58.765Z,48.3
2024-04-30T13:00:01.627Z,45.93
2024-04-30T13:02:03.055Z,45.22
2024-04-30T13:06:05.116Z,45.18
2024-04-30T13:08:06.292Z,46.55
2024-04-30T13:10:07.081Z,42.24
2024-04-30T13:12:08.670Z,44.95
2024-04-30T13:16:11.905Z,46.45
2024-04-30T13:18:12.907Z,45.94
2024-04-30T13:22:16.325Z,47.78
2024-04-30T13:26:18.651Z,46.99
2024-04-30T13:28:20.182Z,46.03
2024-04-30T13:32:21.980Z,49.09
2024-04-30T13:36:24.267Z,45.29
2024-04-30T13:38:25.455Z,39.21
2024-04-30T13:42:27.300Z,36.89
2024-04-30T13:44:28.582Z,39.64
2024-04-30T13:48:31.006Z,34.39
2024-04-30T13:52:35.014Z,35.93
2024-04-30T13:54:33.942Z,35.03
2024-04-30T13:58:36.813Z,44.18
2024-04-30T14:00:37.866Z,43.81
2024-04-30T14:04:40.109Z,44.17
2024-04-30T14:08:42.978Z,45.32
2024-04-30T14:10:44.016Z,39.9
2024-04-30T14:14:45.959Z,34.74
2024-04-30T14:18:48.283Z,32.98
2024-04-30T14:20:49.920Z,31.71
2024-04-30T14:24:51.774Z,31.4
2024-04-30T14:26:53.239Z,31.26
2024-04-30T14:28:54.161Z,35.96
2024-04-30T14:30:55.126Z,39.23
2024-04-30T14:34:57.530Z,32.95
2024-04-30T14:36:58.709Z,37.8
2024-04-30T14:41:00.795Z,33.9
2024-04-30T14:43:02.073Z,34.65
2024-04-30T14:47:05.402Z,33.64
2024-04-30T14:51:07.391Z,33.49
2024-04-30T14:53:08.346Z,31.42
2024-04-30T14:57:10.070Z,32.15
2024-04-30T14:59:11.084Z,28.88
2024-04-30T15:03:13.409Z,29.35
2024-04-30T15:07:16.245Z,30.64
2024-04-30T15:09:17.512Z,30.87
2024-04-30T15:13:20.025Z,29.62
2024-04-30T15:17:22.537Z,31.03
2024-04-30T15:19:23.936Z,31.19
2024-04-30T15:23:26.117Z,34.99
2024-04-30T15:25:27.319Z,31.67
2024-04-30T15:29:29.286Z,33.98
2024-04-30T15:33:32.405Z,31.08
2024-04-30T15:35:33.895Z,27.76
2024-04-30T15:39:35.538Z,29.54
2024-04-30T15:41:37.195Z,29.97
2024-04-30T15:45:40.460Z,27.97
2024-04-30T15:49:43.303Z,29.42
2024-04-30T15:51:45.059Z,27.66
2024-04-30T15:56:04.589Z,29.6
2024-04-30T16:01:50.769Z,33.09
2024-04-30T16:05:53.433Z,27.85
2024-04-30T16:07:54.906Z,30.44
2024-04-30T16:09:57.121Z,31.97
2024-04-30T16:11:58.270Z,32.21
2024-04-30T16:16:04.676Z,33.35
2024-04-30T16:18:02.701Z,26.44
2024-04-30T16:20:04.183Z,30.59
2024-04-30T16:22:05.239Z,32.62
2024-04-30T16:24:06.538Z,28.97
2024-04-30T16:28:08.968Z,31.57
2024-04-30T16:32:11.359Z,34.83
2024-04-30T16:34:12.235Z,31.86
2024-04-30T16:38:15.290Z,29.5
2024-04-30T16:40:16.910Z,29.34
2024-04-30T16:44:20.383Z,27.92
2024-04-30T16:48:22.417Z,30.86
2024-04-30T16:50:23.274Z,29.65
2024-04-30T16:54:25.717Z,32.59
2024-04-30T16:58:28.751Z,31.52
2024-04-30T17:00:29.744Z,35.86
2024-04-30T17:04:31.820Z,31.64
2024-04-30T17:06:33.458Z,32.05
2024-04-30T17:10:35.721Z,31.09
2024-04-30T17:14:37.970Z,34.98
2024-04-30T17:16:38.820Z,36.24
2024-04-30T17:20:41.372Z,39.88
2024-04-30T17:22:42.870Z,38.99
2024-04-30T17:26:45.656Z,40.4
2024-04-30T17:30:48.179Z,41.02
2024-04-30T17:32:49.292Z,40.27
2024-04-30T17:36:52.771Z,39.62
2024-04-30T17:40:55.017Z,39.05
2024-04-30T17:42:56.359Z,40.15
2024-04-30T17:46:59.122Z,41.72
2024-04-30T17:49:00.561Z,41.23
2024-04-30T17:51:03.034Z,41.07
2024-04-30T17:53:02.923Z,42.08
2024-04-30T17:57:05.582Z,42.05
2024-04-30T17:59:06.976Z,42.2
2024-04-30T18:01:08.366Z,42.15
2024-04-30T18:03:09.224Z,42.81
2024-04-30T18:05:11.058Z,43.36
2024-04-30T18:09:14.082Z,44.46
2024-04-30T18:13:16.745Z,45.7
2024-04-30T18:15:18.068Z,48.08
2024-04-30T18:19:20.106Z,48.92
2024-04-30T18:21:21.084Z,49.3
2024-04-30T18:25:23.289Z,50.4
2024-04-30T18:29:26.592Z,52.02
2024-04-30T18:31:27.592Z,51.11
2024-04-30T18:35:30.696Z,52.16
2024-04-30T18:40:17.171Z,53.38
2024-04-30T18:42:18.999Z,53.74
2024-04-30T18:46:20.948Z,54.06
2024-04-30T18:50:23.886Z,54.07
2024-04-30T18:52:25.624Z,55.78
2024-04-30T18:56:27.769Z,55.93
2024-04-30T18:58:29.278Z,55.35
2024-04-30T19:02:32.139Z,55.86
2024-04-30T19:06:35.304Z,57.21
2024-04-30T19:08:36.750Z,58.4
2024-04-30T19:12:39.272Z,58.52
2024-04-30T19:16:41.404Z,59.55
2024-04-30T19:18:42.619Z,59.34
2024-04-30T19:22:44.972Z,59.36
2024-04-30T19:24:46.503Z,59.59
2024-04-30T19:28:49.413Z,59.47
2024-04-30T19:32:51.568Z,60.3
2024-04-30T19:34:53.263Z,61.42
2024-04-30T19:36:54.159Z,61.57
2024-04-30T19:38:55.211Z,62.16
2024-04-30T19:40:56.832Z,63.81
2024-04-30T19:44:59.622Z,63.46
2024-04-30T19:49:02.450Z,64.49
2024-04-30T19:51:04.046Z,64.17
2024-04-30T19:55:06.312Z,65.51
2024-04-30T19:57:07.298Z,64.71
2024-04-30T20:01:10.771Z,65.28
2024-04-30T20:05:13.317Z,64.81
2024-04-30T20:07:14.297Z,65.55
2024-04-30T20:11:17.179Z,66.56
2024-04-30T20:15:20.061Z,68.78
2024-04-30T20:17:21.577Z,69.36
2024-04-30T20:21:24.795Z,69.47
2024-04-30T20:23:26.063Z,72.27
2024-04-30T20:27:28.354Z,70.71
2024-04-30T20:31:30.755Z,71.76
2024-04-30T20:33:32.252Z,71.69
2024-04-30T20:37:35.358Z,69.45
2024-04-30T20:39:36.744Z,69.33
2024-04-30T20:43:39.965Z,69.91
2024-04-30T20:47:43.004Z,70.35
2024-04-30T20:49:44.254Z,70.15
2024-04-30T20:53:46.544Z,72.14
2024-04-30T20:57:49.867Z,71.6
2024-04-30T20:59:50.792Z,72.46
2024-04-30T21:03:53.504Z,73.62
2024-04-30T21:05:54.696Z,74.77
2024-04-30T21:09:57.387Z,74.98
2024-04-30T21:14:00.393Z,76.19
2024-04-30T21:16:02.184Z,76.18
2024-04-30T21:20:04.818Z,76.33
2024-04-30T21:22:06.389Z,76.86
2024-04-30T21:26:09.606Z,77.1
2024-04-30T21:30:11.990Z,77.66
2024-04-30T21:32:13.021Z,77.78
2024-04-30T21:36:24.216Z,78.14
2024-04-30T21:40:18.251Z,78.59
2024-04-30T21:42:19.753Z,79.24
2024-04-30T21:46:21.926Z,79.37
2024-04-30T21:48:23.395Z,79.43
2024-04-30T21:50:24.923Z,79.42
2024-04-30T21:52:26.727Z,79.46
2024-04-30T21:56:30.049Z,79.53
2024-04-30T21:58:31.847Z,78.88
2024-04-30T22:02:34.543Z,78.27
2024-04-30T22:04:36.332Z,78.13
2024-04-30T22:08:39.434Z,78.44
2024-04-30T22:12:41.962Z,78.61
2024-04-30T22:14:43.284Z,78.33
2024-04-30T22:18:45.388Z,78.71
2024-04-30T22:24:49.827Z,79.94
2024-04-30T22:28:52.570Z,80.74
2024-04-30T22:30:54.138Z,81.2
2024-04-30T22:32:55.650Z,81.67
2024-04-30T22:34:56.945Z,82.31
2024-04-30T22:38:59.502Z,82.78
2024-04-30T22:41:00.509Z,82.98
2024-04-30T22:45:03.062Z,83.34
2024-04-30T22:47:04.288Z,83.52
2024-04-30T22:51:07.703Z,84.36
2024-04-30T22:55:11.184Z,85.31
2024-04-30T22:57:12.490Z,85.27
2024-04-30T23:01:15.586Z,85.4
2024-04-30T23:03:17.483Z,85.82
2024-04-30T23:07:19.683Z,86.07
2024-04-30T23:11:22.200Z,86.36
2024-04-30T23:13:23.820Z,86.72
2024-04-30T23:17:26.453Z,87.18
2024-04-30T23:21:29.102Z,88.12
2024-04-30T23:23:30.079Z,88.06
2024-04-30T23:27:32.435Z,88.24
2024-04-30T23:29:33.747Z,88.22
2024-04-30T23:33:36.829Z,87.34
2024-04-30T23:37:39.837Z,87.39
2024-04-30T23:39:40.870Z,87.67
2024-04-30T23:43:43.326Z,88.07
2024-04-30T23:45:44.797Z,88.28
2024-04-30T23:49:47.600Z,88.01
2024-04-30T23:53:50.780Z,87.75
2024-04-30T23:55:51.983Z,87.79
2024-04-30T23:59:55.398Z,87.96
